createdAt,value
2022-12-25T00:00:20.682Z,98.63
2022-12-25T00:00:52.904Z,98.63
2022-12-25T00:01:26.375Z,98.52
2022-12-25T00:01:57.939Z,98.50
2022-12-25T00:02:29.907Z,98.54
2022-12-25T00:03:01.696Z,98.39
2022-12-25T00:03:33.413Z,98.20
2022-12-25T00:04:05.241Z,98.01
2022-12-25T00:04:36.952Z,98.45
2022-12-25T00:05:08.939Z,98.56
2022-12-25T00:05:40.505Z,98.37
2022-12-25T00:06:12.469Z,98.23
2022-12-25T00:06:44.195Z,98.15
2022-12-25T00:07:15.816Z,98.46
2022-12-25T00:07:47.383Z,98.36
2022-12-25T00:08:19.124Z,98.51
2022-12-25T00:08:50.702Z,98.54
2022-12-25T00:09:22.250Z,98.57
2022-12-25T00:09:53.849Z,98.82
2022-12-25T00:10:25.490Z,99.00
2022-12-25T00:11:06.219Z,98.97
2022-12-25T00:11:38.207Z,98.88
2022-12-25T00:12:09.838Z,98.91
2022-12-25T00:12:41.445Z,98.91
2022-12-25T00:13:13.045Z,98.97
2022-12-25T00:13:45.106Z,98.54
2022-12-25T00:14:16.785Z,98.84
2022-12-25T00:14:48.875Z,98.39
2022-12-25T00:15:20.451Z,98.19
2022-12-25T00:15:52.114Z,98.46
2022-12-25T00:16:25.969Z,98.53
2022-12-25T00:16:57.777Z,98.62
2022-12-25T00:17:29.398Z,98.51
2022-12-25T00:18:00.988Z,98.50
2022-12-25T00:18:32.625Z,98.61
2022-12-25T00:19:04.373Z,98.62
2022-12-25T00:19:35.974Z,98.82
2022-12-25T00:20:08.543Z,98.87
2022-12-25T00:20:40.146Z,98.86
2022-12-25T00:21:12.636Z,98.77
2022-12-25T00:21:44.233Z,98.77
2022-12-25T00:22:15.821Z,98.66
2022-12-25T00:22:47.494Z,98.78
2022-12-25T00:23:19.052Z,98.99
2022-12-25T00:23:58.590Z,98.98
2022-12-25T00:24:30.325Z,98.96
2022-12-25T00:25:01.957Z,98.88
2022-12-25T00:25:33.619Z,98.42
2022-12-25T00:26:11.259Z,97.95
2022-12-25T00:26:42.898Z,98.10
2022-12-25T00:27:14.936Z,98.37
2022-12-25T00:27:46.531Z,98.56
2022-12-25T00:28:18.133Z,98.75
2022-12-25T00:28:56.014Z,98.34
2022-12-25T00:29:27.569Z,98.14
2022-12-25T00:29:59.226Z,97.98
2022-12-25T00:30:30.845Z,98.28
2022-12-25T00:31:28.580Z,98.18
2022-12-25T00:32:00.737Z,98.25
2022-12-25T00:32:35.390Z,98.89
2022-12-25T00:33:07.034Z,99.17
2022-12-25T00:33:40.978Z,99.01
2022-12-25T00:34:12.578Z,98.65
2022-12-25T00:34:44.224Z,98.39
2022-12-25T00:35:15.920Z,98.61
2022-12-25T00:35:57.543Z,98.79
2022-12-25T00:36:29.119Z,98.59
2022-12-25T00:37:00.992Z,98.70
2022-12-25T00:37:32.636Z,99.14
2022-12-25T00:38:04.686Z,99.08
2022-12-25T00:38:38.027Z,99.06
2022-12-25T00:39:10.763Z,99.00
2022-12-25T00:39:42.362Z,98.69
2022-12-25T00:40:14.159Z,98.59
2022-12-25T00:40:45.724Z,98.74
2022-12-25T00:41:39.369Z,98.97
2022-12-25T00:42:20.485Z,99.10
2022-12-25T00:42:52.166Z,99.46
2022-12-25T00:43:23.914Z,99.44
2022-12-25T00:43:55.546Z,99.13
2022-12-25T00:44:27.209Z,98.78
2022-12-25T00:44:58.807Z,98.51
2022-12-25T00:45:30.381Z,98.35
2022-12-25T00:46:04.388Z,98.58
2022-12-25T00:46:36.815Z,98.74
2022-12-25T00:47:08.587Z,98.72
2022-12-25T00:47:40.191Z,98.93
2022-12-25T00:48:11.739Z,98.98
2022-12-25T00:48:45.292Z,99.01
2022-12-25T00:49:16.895Z,99.10
2022-12-25T00:49:48.507Z,98.99
2022-12-25T00:50:20.047Z,98.52
2022-12-25T00:51:01.077Z,98.09
2022-12-25T00:51:33.524Z,98.43
2022-12-25T00:52:05.490Z,99.10
2022-12-25T00:52:37.256Z,99.37
2022-12-25T00:53:08.804Z,99.06
2022-12-25T00:53:40.406Z,99.01
2022-12-25T00:54:12.008Z,98.46
2022-12-25T00:54:43.613Z,98.84
2022-12-25T00:55:15.204Z,99.51
2022-12-25T00:55:57.361Z,99.61
2022-12-25T00:56:28.957Z,99.15
2022-12-25T00:57:00.745Z,98.72
2022-12-25T00:57:33.982Z,98.89
2022-12-25T00:58:05.573Z,99.09
2022-12-25T00:58:37.214Z,99.08
2022-12-25T00:59:08.951Z,98.77
2022-12-25T00:59:41.152Z,99.18
2022-12-25T01:00:13.336Z,99.41
2022-12-25T01:00:45.008Z,99.35
2022-12-25T01:01:17.052Z,99.04
2022-12-25T01:01:49.014Z,99.05
2022-12-25T01:02:23.867Z,98.93
2022-12-25T01:02:55.709Z,98.93
2022-12-25T01:03:27.558Z,98.83
2022-12-25T01:03:59.758Z,99.15
2022-12-25T01:04:31.317Z,99.62
2022-12-25T01:05:03.196Z,99.43
2022-12-25T01:05:34.828Z,99.35
2022-12-25T01:06:08.171Z,99.25
2022-12-25T01:06:40.320Z,98.68
2022-12-25T01:07:12.303Z,98.33
2022-12-25T01:07:43.924Z,98.01
2022-12-25T01:08:15.548Z,97.90
2022-12-25T01:09:05.313Z,98.04
2022-12-25T01:09:56.182Z,98.51
2022-12-25T01:10:27.788Z,98.60
2022-12-25T01:11:06.045Z,98.75
2022-12-25T01:11:37.717Z,98.71
2022-12-25T01:12:09.309Z,98.75
2022-12-25T01:12:42.579Z,99.05
2022-12-25T01:13:14.205Z,99.03
2022-12-25T01:13:45.768Z,99.26
2022-12-25T01:14:17.381Z,99.33
2022-12-25T01:14:48.969Z,99.16
2022-12-25T01:15:20.779Z,99.21
2022-12-25T01:15:52.767Z,99.17
2022-12-25T01:16:24.542Z,99.14
2022-12-25T01:16:56.275Z,99.11
2022-12-25T01:17:28.050Z,99.08
2022-12-25T01:18:02.742Z,99.02
2022-12-25T01:18:39.029Z,98.66
2022-12-25T01:19:10.750Z,98.63
2022-12-25T01:19:42.443Z,98.72
2022-12-25T01:20:16.506Z,98.84
2022-12-25T01:20:48.636Z,98.99
2022-12-25T01:21:21.455Z,98.76
2022-12-25T01:21:53.028Z,98.79
2022-12-25T01:22:24.715Z,98.83
2022-12-25T01:22:56.277Z,98.79
2022-12-25T01:23:27.859Z,98.67
2022-12-25T01:23:59.443Z,98.82
2022-12-25T01:24:31.087Z,98.91
2022-12-25T01:25:02.837Z,99.09
2022-12-25T01:25:34.486Z,99.20
2022-12-25T01:26:07.708Z,99.31
2022-12-25T01:26:39.275Z,99.33
2022-12-25T01:27:11.702Z,99.37
2022-12-25T01:27:43.335Z,99.59
2022-12-25T01:28:16.473Z,99.15
2022-12-25T01:28:49.404Z,98.96
2022-12-25T01:29:20.963Z,98.84
2022-12-25T01:29:52.558Z,99.11
2022-12-25T01:30:24.253Z,99.30
2022-12-25T01:30:55.836Z,99.30
2022-12-25T01:31:27.469Z,99.13
2022-12-25T01:31:59.135Z,99.16
2022-12-25T01:32:30.817Z,99.09
2022-12-25T01:33:02.620Z,99.04
2022-12-25T01:33:34.269Z,98.87
2022-12-25T01:34:05.853Z,98.88
2022-12-25T01:34:37.550Z,98.87
2022-12-25T01:35:09.404Z,99.03
2022-12-25T01:35:42.039Z,98.94
2022-12-25T01:36:15.669Z,98.98
2022-12-25T01:36:47.242Z,99.09
2022-12-25T01:37:18.836Z,99.18
2022-12-25T01:37:51.767Z,99.23
2022-12-25T01:38:23.391Z,99.18
2022-12-25T01:38:55.115Z,99.17
2022-12-25T01:39:26.768Z,99.22
2022-12-25T01:39:58.364Z,99.25
2022-12-25T01:40:29.919Z,99.05
2022-12-25T01:41:01.477Z,99.01
2022-12-25T01:41:33.114Z,98.96
2022-12-25T01:42:04.818Z,98.99
2022-12-25T01:42:36.541Z,98.83
2022-12-25T01:43:30.683Z,98.97
2022-12-25T01:44:26.791Z,99.17
2022-12-25T01:45:21.802Z,99.25
2022-12-25T01:45:53.935Z,99.20
2022-12-25T01:46:25.877Z,99.29
2022-12-25T01:46:57.457Z,99.47
2022-12-25T01:47:29.049Z,99.24
2022-12-25T01:48:05.171Z,99.64
2022-12-25T01:48:38.344Z,99.52
2022-12-25T01:49:15.245Z,99.49
2022-12-25T01:49:49.891Z,99.37
2022-12-25T01:50:22.127Z,99.44
2022-12-25T01:51:01.680Z,99.07
2022-12-25T01:51:44.933Z,99.16
2022-12-25T01:52:24.555Z,99.26
2022-12-25T01:52:57.874Z,99.38
2022-12-25T01:53:29.699Z,99.26
2022-12-25T01:54:05.756Z,99.21
2022-12-25T01:54:48.522Z,99.19
2022-12-25T01:55:20.207Z,99.35
2022-12-25T01:55:57.080Z,99.28
2022-12-25T01:56:29.645Z,99.18
2022-12-25T01:57:06.286Z,99.11
2022-12-25T01:57:40.597Z,99.04
2022-12-25T01:58:12.406Z,99.25
2022-12-25T01:58:43.984Z,99.36
2022-12-25T01:59:19.553Z,98.98
2022-12-25T01:59:51.798Z,98.84
2022-12-25T02:00:23.453Z,98.39
2022-12-25T02:01:35.898Z,98.81
2022-12-25T02:02:08.372Z,98.89
2022-12-25T02:02:42.044Z,98.83
2022-12-25T02:03:14.430Z,99.17
2022-12-25T02:03:46.139Z,99.41
2022-12-25T02:04:38.975Z,99.14
2022-12-25T02:05:30.437Z,98.92
2022-12-25T02:06:04.015Z,99.04
2022-12-25T02:06:35.801Z,98.90
2022-12-25T02:07:16.478Z,99.04
2022-12-25T02:07:49.178Z,99.44
2022-12-25T02:08:22.115Z,99.62
2022-12-25T02:08:53.698Z,99.40
2022-12-25T02:09:25.297Z,99.35
2022-12-25T02:09:56.872Z,99.28
2022-12-25T02:10:28.694Z,99.13
2022-12-25T02:11:00.254Z,99.36
2022-12-25T02:11:50.326Z,99.44
2022-12-25T02:12:27.939Z,99.34
2022-12-25T02:13:00.346Z,98.97
2022-12-25T02:13:32.000Z,98.77
2022-12-25T02:14:03.742Z,99.28
2022-12-25T02:14:37.480Z,99.35
2022-12-25T02:15:12.781Z,99.53
2022-12-25T02:16:07.252Z,99.67
2022-12-25T02:16:57.240Z,99.65
2022-12-25T02:17:41.867Z,99.28
2022-12-25T02:18:33.497Z,99.26
2022-12-25T02:19:36.270Z,99.11
2022-12-25T02:20:45.389Z,99.36
2022-12-25T02:21:50.853Z,99.43
2022-12-25T02:22:39.429Z,99.55
2022-12-25T02:23:38.683Z,99.08
2022-12-25T02:24:28.076Z,98.72
2022-12-25T02:25:11.688Z,98.93
2022-12-25T02:26:11.125Z,99.06
2022-12-25T02:26:57.577Z,99.13
2022-12-25T02:28:03.899Z,99.18
2022-12-25T02:29:05.169Z,99.18
2022-12-25T02:30:06.048Z,99.13
2022-12-25T02:30:53.785Z,99.34
2022-12-25T02:31:40.584Z,99.24
2022-12-25T02:32:30.914Z,99.57
2022-12-25T02:33:28.659Z,99.06
2022-12-25T02:34:32.365Z,99.15
2022-12-25T02:35:16.443Z,99.31
2022-12-25T02:35:52.480Z,99.24
2022-12-25T02:36:29.584Z,99.23
2022-12-25T02:37:07.756Z,99.37
2022-12-25T02:37:52.920Z,99.21
2022-12-25T02:38:36.360Z,99.42
2022-12-25T02:39:37.806Z,99.49
2022-12-25T02:40:30.329Z,99.16
2022-12-25T02:41:09.629Z,99.11
2022-12-25T02:41:45.468Z,99.16
2022-12-25T02:42:45.463Z,99.25
2022-12-25T02:43:45.898Z,99.34
2022-12-25T02:44:39.665Z,99.58
2022-12-25T02:45:31.613Z,99.32
2022-12-25T02:46:27.529Z,99.24
2022-12-25T02:47:18.677Z,99.45
2022-12-25T02:48:09.237Z,99.32
2022-12-25T02:49:04.457Z,99.39
2022-12-25T02:49:56.346Z,99.77
2022-12-25T02:50:46.630Z,99.25
2022-12-25T02:51:39.989Z,99.19
2022-12-25T02:52:39.501Z,99.30
2022-12-25T02:53:30.882Z,99.55
2022-12-25T02:54:26.771Z,99.54
2022-12-25T02:55:34.760Z,99.48
2022-12-25T02:56:25.125Z,99.53
2022-12-25T02:57:19.097Z,98.98
2022-12-25T02:58:13.060Z,99.30
2022-12-25T02:59:04.951Z,98.61
2022-12-25T02:59:59.496Z,99.08
2022-12-25T03:00:53.299Z,98.55
2022-12-25T03:01:48.669Z,99.09
2022-12-25T03:02:41.372Z,99.08
2022-12-25T03:03:33.431Z,99.42
2022-12-25T03:04:27.989Z,99.27
2022-12-25T03:05:21.821Z,99.18
2022-12-25T03:06:15.750Z,99.09
2022-12-25T03:07:09.644Z,99.06
2022-12-25T03:07:43.254Z,99.30
2022-12-25T03:08:23.025Z,99.59
2022-12-25T03:09:17.159Z,99.63
2022-12-25T03:10:28.172Z,99.57
2022-12-25T03:11:27.099Z,99.72
2022-12-25T03:12:26.554Z,99.71
2022-12-25T03:13:11.329Z,99.58
2022-12-25T03:13:45.087Z,99.60
2022-12-25T03:14:35.199Z,99.61
2022-12-25T03:15:27.761Z,99.43
2022-12-25T03:16:18.272Z,99.39
2022-12-25T03:16:55.389Z,99.29
2022-12-25T03:17:27.188Z,99.08
2022-12-25T03:18:03.083Z,99.03
2022-12-25T03:18:35.487Z,99.05
2022-12-25T03:19:27.061Z,98.99
2022-12-25T03:20:17.453Z,99.11
2022-12-25T03:21:07.844Z,99.16
2022-12-25T03:21:57.792Z,98.89
2022-12-25T03:22:50.224Z,98.73
2022-12-25T03:23:46.546Z,98.54
2022-12-25T03:24:36.603Z,98.77
2022-12-25T03:25:27.617Z,98.99
2022-12-25T03:26:17.874Z,99.57
2022-12-25T03:26:55.315Z,99.35
2022-12-25T03:27:29.611Z,99.33
2022-12-25T03:28:02.045Z,99.07
2022-12-25T03:28:33.617Z,99.03
2022-12-25T03:29:05.222Z,99.11
2022-12-25T03:29:55.330Z,98.79
2022-12-25T03:31:07.716Z,99.06
2022-12-25T03:31:55.531Z,98.85
2022-12-25T03:32:41.860Z,98.35
2022-12-25T03:33:48.424Z,98.99
2022-12-25T03:34:51.313Z,99.36
2022-12-25T03:35:45.891Z,99.25
2022-12-25T03:36:39.153Z,99.34
2022-12-25T03:37:41.592Z,99.47
2022-12-25T03:38:49.405Z,99.52
2022-12-25T03:39:49.846Z,99.34
2022-12-25T03:40:58.841Z,99.48
2022-12-25T03:42:12.410Z,99.10
2022-12-25T03:43:11.842Z,99.19
2022-12-25T03:44:09.254Z,99.47
2022-12-25T03:45:27.823Z,99.33
2022-12-25T03:46:23.876Z,99.04
2022-12-25T03:47:34.482Z,99.32
2022-12-25T03:48:13.404Z,99.09
2022-12-25T03:49:09.040Z,98.84
2022-12-25T03:50:34.158Z,99.39
2022-12-25T03:51:28.398Z,99.99
2022-12-25T03:52:21.222Z,99.68
2022-12-25T03:53:13.135Z,99.19
2022-12-25T03:54:06.636Z,99.76
2022-12-25T03:54:59.796Z,99.78
2022-12-25T03:55:51.276Z,99.35
2022-12-25T03:56:42.313Z,99.56
2022-12-25T03:57:33.290Z,99.60
2022-12-25T03:58:23.365Z,99.49
2022-12-25T03:59:22.870Z,99.85
2022-12-25T04:00:14.450Z,99.51
2022-12-25T04:01:04.509Z,99.55
2022-12-25T04:01:54.934Z,99.58
2022-12-25T04:02:45.105Z,99.73
2022-12-25T04:03:45.926Z,99.43
2022-12-25T04:04:36.320Z,99.35
2022-12-25T04:05:26.760Z,99.38
2022-12-25T04:06:16.787Z,99.33
2022-12-25T04:07:07.349Z,98.74
2022-12-25T04:07:58.213Z,98.65
2022-12-25T04:08:48.103Z,98.83
2022-12-25T04:09:38.229Z,99.23
2022-12-25T04:10:29.145Z,99.13
2022-12-25T04:11:19.056Z,99.10
2022-12-25T04:12:09.299Z,99.31
2022-12-25T04:12:59.457Z,99.40
2022-12-25T04:13:49.319Z,99.24
2022-12-25T04:14:39.490Z,99.49
2022-12-25T04:15:29.976Z,99.75
2022-12-25T04:16:20.335Z,99.97
2022-12-25T04:17:10.665Z,99.76
2022-12-25T04:18:00.453Z,99.84
2022-12-25T04:18:50.863Z,99.78
2022-12-25T04:19:40.887Z,99.51
2022-12-25T04:20:31.112Z,99.35
2022-12-25T04:21:21.463Z,99.26
2022-12-25T04:22:11.822Z,99.51
2022-12-25T04:23:01.765Z,99.68
2022-12-25T04:23:52.269Z,99.52
2022-12-25T04:24:42.063Z,99.67
2022-12-25T04:25:32.379Z,99.85
2022-12-25T04:26:22.354Z,99.76
2022-12-25T04:27:12.299Z,99.68
2022-12-25T04:28:02.151Z,99.64
2022-12-25T04:28:52.461Z,99.49
2022-12-25T04:29:42.397Z,99.49
2022-12-25T04:30:32.614Z,99.56
2022-12-25T04:31:22.655Z,99.56
2022-12-25T04:32:12.855Z,99.74
2022-12-25T04:33:03.214Z,99.59
2022-12-25T04:33:53.565Z,99.28
2022-12-25T04:34:43.996Z,99.40
2022-12-25T04:35:34.323Z,99.65
2022-12-25T04:36:14.852Z,99.58
2022-12-25T04:36:46.453Z,99.44
2022-12-25T04:37:18.158Z,99.44
2022-12-25T04:37:49.736Z,99.38
2022-12-25T04:38:22.366Z,99.32
2022-12-25T04:38:53.963Z,99.09
2022-12-25T04:39:25.535Z,99.32
2022-12-25T04:39:57.081Z,99.58
2022-12-25T04:40:28.766Z,99.99
2022-12-25T04:41:01.927Z,99.99
2022-12-25T04:41:33.561Z,99.99
2022-12-25T04:42:05.218Z,99.99
2022-12-25T04:42:36.886Z,99.99
2022-12-25T04:43:08.432Z,99.99
2022-12-25T04:43:40.082Z,99.99
2022-12-25T04:44:11.695Z,99.95
2022-12-25T04:44:43.389Z,99.99
2022-12-25T04:45:14.994Z,99.89
2022-12-25T04:45:55.834Z,99.92
2022-12-25T04:46:27.666Z,99.96
2022-12-25T04:46:59.264Z,99.69
2022-12-25T04:47:30.950Z,99.81
2022-12-25T04:48:02.568Z,99.90
2022-12-25T04:48:35.966Z,99.96
2022-12-25T04:49:07.615Z,99.80
2022-12-25T04:49:39.713Z,99.91
2022-12-25T04:50:11.363Z,99.67
2022-12-25T04:50:42.953Z,99.29
2022-12-25T04:51:18.186Z,99.05
2022-12-25T04:51:49.789Z,99.14
2022-12-25T04:52:21.362Z,99.40
2022-12-25T04:52:52.987Z,99.29
2022-12-25T04:53:24.607Z,99.28
2022-12-25T04:53:56.645Z,98.97
2022-12-25T04:54:28.233Z,98.71
2022-12-25T04:54:59.809Z,98.63
2022-12-25T04:55:31.406Z,98.35
2022-12-25T04:56:03.414Z,98.72
2022-12-25T04:56:40.033Z,99.20
2022-12-25T04:57:15.517Z,99.55
2022-12-25T04:57:47.062Z,99.70
2022-12-25T04:58:18.681Z,99.56
2022-12-25T04:58:50.273Z,99.48
2022-12-25T04:59:21.967Z,99.61
2022-12-25T04:59:53.561Z,99.72
2022-12-25T05:00:25.141Z,99.50
2022-12-25T05:01:00.532Z,99.64
2022-12-25T05:01:32.682Z,99.99
2022-12-25T05:02:04.419Z,99.93
2022-12-25T05:02:36.315Z,99.99
2022-12-25T05:03:08.156Z,99.99
2022-12-25T05:03:40.627Z,99.99
2022-12-25T05:04:12.369Z,99.99
2022-12-25T05:04:43.926Z,99.99
2022-12-25T05:05:15.616Z,99.99
2022-12-25T05:05:48.587Z,99.99
2022-12-25T05:06:20.507Z,99.99
2022-12-25T05:06:52.125Z,99.99
2022-12-25T05:07:24.099Z,99.99
2022-12-25T05:07:56.779Z,99.99
2022-12-25T05:08:30.143Z,99.99
2022-12-25T05:09:01.775Z,99.99
2022-12-25T05:09:33.397Z,99.99
2022-12-25T05:10:05.410Z,99.99
2022-12-25T05:10:40.261Z,99.99
2022-12-25T05:11:14.018Z,99.99
2022-12-25T05:11:45.713Z,99.99
2022-12-25T05:12:17.325Z,99.99
2022-12-25T05:12:48.881Z,99.99
2022-12-25T05:13:20.483Z,99.99
2022-12-25T05:13:52.096Z,99.89
2022-12-25T05:14:23.872Z,99.73
2022-12-25T05:14:55.621Z,99.48
2022-12-25T05:15:27.191Z,99.04
2022-12-25T05:15:58.861Z,99.48
2022-12-25T05:16:30.686Z,99.59
2022-12-25T05:17:02.437Z,99.53
2022-12-25T05:17:34.184Z,99.67
2022-12-25T05:18:05.881Z,99.51
2022-12-25T05:18:37.528Z,99.40
2022-12-25T05:19:09.641Z,99.55
2022-12-25T05:19:41.185Z,99.58
2022-12-25T05:20:12.833Z,99.36
2022-12-25T05:20:54.741Z,99.54
2022-12-25T05:21:26.464Z,99.66
2022-12-25T05:21:58.045Z,99.76
2022-12-25T05:22:29.658Z,99.77
2022-12-25T05:23:01.289Z,99.89
2022-12-25T05:23:32.832Z,99.82
2022-12-25T05:24:04.624Z,99.78
2022-12-25T05:24:36.243Z,99.88
2022-12-25T05:25:08.163Z,99.46
2022-12-25T05:25:40.696Z,99.54
2022-12-25T05:26:12.298Z,99.48
2022-12-25T05:26:43.986Z,99.68
2022-12-25T05:27:16.219Z,99.63
2022-12-25T05:27:53.735Z,99.81
2022-12-25T05:28:25.601Z,99.74
2022-12-25T05:28:57.159Z,99.78
2022-12-25T05:29:28.746Z,99.81
2022-12-25T05:30:00.330Z,99.68
2022-12-25T05:30:31.877Z,99.76
2022-12-25T05:31:03.627Z,99.69
2022-12-25T05:31:35.327Z,99.66
2022-12-25T05:32:07.014Z,99.60
2022-12-25T05:32:38.695Z,99.74
2022-12-25T05:33:10.423Z,99.99
2022-12-25T05:33:41.989Z,99.99
2022-12-25T05:34:13.572Z,99.99
2022-12-25T05:34:45.185Z,99.99
2022-12-25T05:35:16.865Z,99.99
2022-12-25T05:35:48.433Z,99.87
2022-12-25T05:36:20.074Z,99.78
2022-12-25T05:36:51.780Z,99.86
2022-12-25T05:37:23.397Z,99.83
2022-12-25T05:37:55.014Z,99.87
2022-12-25T05:38:26.605Z,99.99
2022-12-25T05:38:58.236Z,99.96
2022-12-25T05:39:29.872Z,99.90
2022-12-25T05:40:03.011Z,99.85
2022-12-25T05:40:38.237Z,99.81
2022-12-25T05:41:10.092Z,99.80
2022-12-25T05:41:41.706Z,99.90
2022-12-25T05:42:13.266Z,99.76
2022-12-25T05:42:44.829Z,99.60
2022-12-25T05:43:16.428Z,99.46
2022-12-25T05:43:47.974Z,99.37
2022-12-25T05:44:19.527Z,99.42
2022-12-25T05:44:51.107Z,99.39
2022-12-25T05:45:22.734Z,99.56
2022-12-25T05:45:54.323Z,99.43
2022-12-25T05:46:25.952Z,99.35
2022-12-25T05:46:57.613Z,99.17
2022-12-25T05:47:29.190Z,99.22
2022-12-25T05:48:00.929Z,99.15
2022-12-25T05:48:33.613Z,99.37
2022-12-25T05:49:05.829Z,99.33
2022-12-25T05:49:37.394Z,99.41
2022-12-25T05:50:09.231Z,99.44
2022-12-25T05:50:40.840Z,99.65
2022-12-25T05:51:14.510Z,99.58
2022-12-25T05:51:46.144Z,99.80
2022-12-25T05:52:17.701Z,99.52
2022-12-25T05:52:49.309Z,99.73
2022-12-25T05:53:20.933Z,99.81
2022-12-25T05:53:52.660Z,99.86
2022-12-25T05:54:24.219Z,99.89
2022-12-25T05:54:55.796Z,99.81
2022-12-25T05:55:27.336Z,99.86
2022-12-25T05:56:04.209Z,99.67
2022-12-25T05:56:35.823Z,99.69
2022-12-25T05:57:07.385Z,99.64
2022-12-25T05:57:38.985Z,99.62
2022-12-25T05:58:12.045Z,99.72
2022-12-25T05:58:43.638Z,99.79
2022-12-25T05:59:15.253Z,99.72
2022-12-25T05:59:46.806Z,99.70
2022-12-25T06:00:18.931Z,99.70
2022-12-25T06:00:50.536Z,99.75
2022-12-25T06:01:24.484Z,99.79
2022-12-25T06:01:56.330Z,99.85
2022-12-25T06:02:28.066Z,99.82
2022-12-25T06:03:00.192Z,99.90
2022-12-25T06:03:31.963Z,99.94
2022-12-25T06:04:08.418Z,99.98
2022-12-25T06:04:43.627Z,99.97
2022-12-25T06:05:15.399Z,99.80
2022-12-25T06:05:47.030Z,99.63
2022-12-25T06:06:19.167Z,99.81
2022-12-25T06:06:50.800Z,99.86
2022-12-25T06:07:22.403Z,99.99
2022-12-25T06:07:53.965Z,99.99
2022-12-25T06:08:25.517Z,99.91
2022-12-25T06:08:57.117Z,99.95
2022-12-25T06:09:28.708Z,99.99
2022-12-25T06:10:00.280Z,99.96
2022-12-25T06:10:31.905Z,99.95
2022-12-25T06:11:05.486Z,99.87
2022-12-25T06:11:37.081Z,99.90
2022-12-25T06:12:09.486Z,99.99
2022-12-25T06:12:41.137Z,99.86
2022-12-25T06:13:13.161Z,99.92
2022-12-25T06:13:44.798Z,99.74
2022-12-25T06:14:16.697Z,99.77
2022-12-25T06:14:48.327Z,99.77
2022-12-25T06:15:19.950Z,99.84
2022-12-25T06:15:51.556Z,99.85
2022-12-25T06:16:23.290Z,99.91
2022-12-25T06:16:54.977Z,99.88
2022-12-25T06:17:27.203Z,99.70
2022-12-25T06:18:01.672Z,99.54
2022-12-25T06:18:40.652Z,99.60
2022-12-25T06:19:12.242Z,99.54
2022-12-25T06:19:43.905Z,99.51
2022-12-25T06:20:15.517Z,99.70
2022-12-25T06:20:47.153Z,99.86
2022-12-25T06:21:19.058Z,99.82
2022-12-25T06:21:54.515Z,99.52
2022-12-25T06:22:30.907Z,99.55
2022-12-25T06:23:02.778Z,99.48
2022-12-25T06:23:34.510Z,99.49
2022-12-25T06:24:06.448Z,99.20
2022-12-25T06:24:38.619Z,99.39
2022-12-25T06:25:10.201Z,99.73
2022-12-25T06:25:41.964Z,99.63
2022-12-25T06:26:19.658Z,99.74
2022-12-25T06:26:51.475Z,99.72
2022-12-25T06:27:23.084Z,99.59
2022-12-25T06:27:54.706Z,99.65
2022-12-25T06:28:26.267Z,99.74
2022-12-25T06:28:57.807Z,99.85
2022-12-25T06:29:29.342Z,99.89
2022-12-25T06:30:00.894Z,99.63
2022-12-25T06:30:33.808Z,99.73
2022-12-25T06:31:07.778Z,99.74
2022-12-25T06:31:39.433Z,99.57
2022-12-25T06:32:11.026Z,99.70
2022-12-25T06:32:42.703Z,99.37
2022-12-25T06:33:14.248Z,99.37
2022-12-25T06:33:46.092Z,99.50
2022-12-25T06:34:17.691Z,99.63
2022-12-25T06:34:49.236Z,99.77
2022-12-25T06:35:20.828Z,99.99
2022-12-25T06:35:52.430Z,99.99
2022-12-25T06:36:26.775Z,99.84
2022-12-25T06:36:58.408Z,99.69
2022-12-25T06:37:31.112Z,99.38
2022-12-25T06:38:02.774Z,99.40
2022-12-25T06:38:35.238Z,99.53
2022-12-25T06:39:06.808Z,99.38
2022-12-25T06:39:38.380Z,99.56
2022-12-25T06:40:10.250Z,99.63
2022-12-25T06:40:41.809Z,99.60
2022-12-25T06:41:19.305Z,99.74
2022-12-25T06:41:50.988Z,99.82
2022-12-25T06:42:22.586Z,99.92
2022-12-25T06:42:54.226Z,99.99
2022-12-25T06:43:25.756Z,99.99
2022-12-25T06:43:59.920Z,99.99
2022-12-25T06:44:31.576Z,99.99
2022-12-25T06:45:03.251Z,99.99
2022-12-25T06:45:35.837Z,99.99
2022-12-25T06:46:12.254Z,99.99
2022-12-25T06:46:43.959Z,99.99
2022-12-25T06:47:15.553Z,99.99
2022-12-25T06:47:47.137Z,99.99
2022-12-25T06:48:18.730Z,99.99
2022-12-25T06:48:50.937Z,99.95
2022-12-25T06:49:22.627Z,99.94
2022-12-25T06:49:54.228Z,99.75
2022-12-25T06:50:25.819Z,99.72
2022-12-25T06:50:57.397Z,99.53
2022-12-25T06:51:31.177Z,99.65
2022-12-25T06:52:03.281Z,99.48
2022-12-25T06:52:35.084Z,99.60
2022-12-25T06:53:06.677Z,99.61
2022-12-25T06:53:40.369Z,99.53
2022-12-25T06:54:12.959Z,99.62
2022-12-25T06:54:44.572Z,99.65
2022-12-25T06:55:16.178Z,99.71
2022-12-25T06:55:47.736Z,99.81
2022-12-25T06:56:24.206Z,99.76
2022-12-25T06:56:55.948Z,99.69
2022-12-25T06:57:27.556Z,99.76
2022-12-25T06:57:59.207Z,99.80
2022-12-25T06:58:30.759Z,99.64
2022-12-25T06:59:08.203Z,99.15
2022-12-25T06:59:39.795Z,98.74
2022-12-25T07:00:11.833Z,98.46
2022-12-25T07:00:43.510Z,98.46
2022-12-25T07:01:36.028Z,98.37
2022-12-25T07:02:17.256Z,98.24
2022-12-25T07:02:50.017Z,98.27
2022-12-25T07:03:22.353Z,98.24
2022-12-25T07:03:59.809Z,98.10
2022-12-25T07:04:39.197Z,98.22
2022-12-25T07:05:10.776Z,98.40
2022-12-25T07:05:42.329Z,98.30
2022-12-25T07:06:15.155Z,98.40
2022-12-25T07:06:46.993Z,98.60
2022-12-25T07:07:18.569Z,98.78
2022-12-25T07:07:50.200Z,98.71
2022-12-25T07:08:21.782Z,98.82
2022-12-25T07:08:53.796Z,98.84
2022-12-25T07:09:25.695Z,98.92
2022-12-25T07:09:57.292Z,98.83
2022-12-25T07:10:28.961Z,98.69
2022-12-25T07:11:00.649Z,98.63
2022-12-25T07:11:32.320Z,98.65
2022-12-25T07:12:13.603Z,98.54
2022-12-25T07:12:45.208Z,98.51
2022-12-25T07:13:16.762Z,98.49
2022-12-25T07:13:48.744Z,98.12
2022-12-25T07:14:24.528Z,98.24
2022-12-25T07:14:56.395Z,98.36
2022-12-25T07:15:27.956Z,98.23
2022-12-25T07:16:02.065Z,98.27
2022-12-25T07:16:33.760Z,98.26
2022-12-25T07:17:05.601Z,98.38
2022-12-25T07:17:37.228Z,98.36
2022-12-25T07:18:08.790Z,98.51
2022-12-25T07:18:41.201Z,98.57
2022-12-25T07:19:12.866Z,98.54
2022-12-25T07:19:45.469Z,98.42
2022-12-25T07:20:17.216Z,98.28
2022-12-25T07:20:48.813Z,98.26
2022-12-25T07:21:21.643Z,98.45
2022-12-25T07:21:53.189Z,98.57
2022-12-25T07:22:24.740Z,98.55
2022-12-25T07:22:56.476Z,98.62
2022-12-25T07:23:28.108Z,98.41
2022-12-25T07:23:59.702Z,98.35
2022-12-25T07:24:32.844Z,98.28
2022-12-25T07:25:04.739Z,98.28
2022-12-25T07:25:37.609Z,98.26
2022-12-25T07:26:10.975Z,98.17
2022-12-25T07:26:42.551Z,98.20
2022-12-25T07:27:14.151Z,98.28
2022-12-25T07:27:47.265Z,98.16
2022-12-25T07:28:18.874Z,98.21
2022-12-25T07:28:50.429Z,98.12
2022-12-25T07:29:21.977Z,97.98
2022-12-25T07:29:53.529Z,97.87
2022-12-25T07:30:25.197Z,97.38
2022-12-25T07:31:02.002Z,97.40
2022-12-25T07:31:33.691Z,97.51
2022-12-25T07:32:05.909Z,97.48
2022-12-25T07:32:37.701Z,97.54
2022-12-25T07:33:09.284Z,97.39
2022-12-25T07:33:41.561Z,97.30
2022-12-25T07:34:13.267Z,97.06
2022-12-25T07:34:44.818Z,97.07
2022-12-25T07:35:16.405Z,96.87
2022-12-25T07:35:48.163Z,97.03
2022-12-25T07:36:20.058Z,96.92
2022-12-25T07:36:51.864Z,96.99
2022-12-25T07:37:23.505Z,96.98
2022-12-25T07:37:55.064Z,97.09
2022-12-25T07:38:26.646Z,96.99
2022-12-25T07:38:58.384Z,96.91
2022-12-25T07:39:30.343Z,96.67
2022-12-25T07:40:02.076Z,96.56
2022-12-25T07:40:33.654Z,96.58
2022-12-25T07:41:08.475Z,96.68
2022-12-25T07:41:40.359Z,96.78
2022-12-25T07:42:12.067Z,96.75
2022-12-25T07:42:43.647Z,96.62
2022-12-25T07:43:15.227Z,96.51
2022-12-25T07:43:50.512Z,96.41
2022-12-25T07:44:22.558Z,96.43
2022-12-25T07:44:54.109Z,96.66
2022-12-25T07:45:25.786Z,96.61
2022-12-25T07:45:59.236Z,96.76
2022-12-25T07:46:31.037Z,96.85
2022-12-25T07:47:02.616Z,96.67
2022-12-25T07:47:34.163Z,96.73
2022-12-25T07:48:08.475Z,97.27
2022-12-25T07:48:43.521Z,97.59
2022-12-25T07:49:15.268Z,97.51
2022-12-25T07:49:46.848Z,97.18
2022-12-25T07:50:18.497Z,96.95
2022-12-25T07:50:56.510Z,97.03
2022-12-25T07:51:30.201Z,97.32
2022-12-25T07:52:01.792Z,97.60
2022-12-25T07:52:38.018Z,97.74
2022-12-25T07:53:13.017Z,97.49
2022-12-25T07:53:44.596Z,97.50
2022-12-25T07:54:16.191Z,97.35
2022-12-25T07:54:47.898Z,97.43
2022-12-25T07:55:19.491Z,97.47